Bras d'Or Lakes: Past 24 Hour Conditions

 

Northeast Burgeo Bank - 44255

04:00 PM AST 27 November 2014Buoy position: 47.27N 57.37W
This table is a summary of hourly weather conditions for the past 24 hours.
Date / Time
(AST)
Wind(knots) Wave height(m) Wave period(s) Pressure(kPa) Air tempC) Water tempC)
27 November 2014
16:00 SSW 23 gust 31 2.7 8.0 99.2 8 5
15:00 SSW 23 gust 27 2.2 8.0 99.2 9 5
14:00 SSW 18 gust 23 2.4 7.0 99.2 9 5
13:00 ESE 16 gust 19 2.9 7.0 99.3 7 5
12:00 N/A N/A N/A N/A N/A N/A
11:00 E 31 gust 37 2.8 6.0 99.6 5 5
10:00 ENE 31 gust 39 2.5 6.0 100.0 4 6
9:00 ENE 31 gust 35 2.1 5.0 100.3 4 6
8:00 ENE 27 gust 31 2.0 9.0 100.6 4 6
7:00 E 25 gust 29 1.8 10.0 100.9 4 5
6:00 E 19 gust 27 1.7 10.0 101.1 3 6
5:00 E 25 gust 29 1.6 9.0 101.1 3 6
4:00 E 16 gust 19 1.5 10.0 101.5 3 5
3:00 E 12 gust 14 1.4 10.0 101.7 2 5
2:00 E 8 gust 10 1.4 10.0 101.8 1 5
1:00 calm 1.5 8.0 102.0 1 5
0:00 N 2 gust 4 1.5 10.0 102.0 1 6
26 November 2014
23:00 NW 8 gust 10 1.7 10.0 102.1 1 6
22:00 NW 6 gust 12 1.9 7.0 102.2 4 5
21:00 NW 10 gust 12 2.0 10.0 102.3 5 5
20:00 W 10 gust 12 2.1 7.0 102.3 5 5
19:00 W 10 gust 12 2.4 9.0 102.2 5 5
18:00 W 12 gust 16 2.5 9.0 102.1 5 5
17:00 W 14 gust 18 2.6 7.0 102.0 5 5
16:00 W 16 gust 18 2.6 11.0 102.0 5 5
 
Map of Atlantic - Newfoundland marine weather areas Southwestern Grand Banks - 44138 Banquereau - 44139 Tail of the Bank - 44140 Nickerson Bank - 44251 Northeast Burgeo Bank - 44255 Blanc-Sablon Airport Cap Whittle Chevery Natashquan Airport Heath Point Miscou Island Grand Étang Ingonish Beach North Mountain St.Paul Island J.A. Douglas McCurdy Sydney Airport Charlottetown Airport East Point North Cape Argentia Bonavista Burgeo Cape Race Corner Brook Daniel's Harbour Englee Ferolle Point La Scie Port aux Basques Rocky Harbour Sagona Island St. Anthony Airport St. John's Int'l Airport St. Lawrence Stephenville Airport Twillingate Winterland Wreckhouse Cartwright Airport Mary's Harbour Grates Cove Pool's Island Marticot Island Long Pond Îles de la Madeleine Airport
Legend: buoyBuoy land stationLand Station